Flight Track Log - Related Links

Times and Time Zones

All times are in EDT time to prevent confusion due to time zone crossing. See the N93XP flight status page for this flight to view local times or setup timezone preferences in your user account.

Time Position Orientation Groundspeed Altitude Reporting Facility
EDT Latitude Longitude Course Direction KTS MPH feet Rate Location/Type
Wed 08:07:13 AM 42.1953 -87.8719 35° Northeast 188 216 3,800  Level Chicago Center
Wed 08:08:15 AM 42.2094 -87.7575 80° East 261 300 4,200 1,065 Climbing Chicago Center
Wed 08:09:17 AM 42.1806 -87.6750 115° Southeast 281 323 6,000 1,790 Climbing Chicago Center
Wed 08:10:19 AM 42.1164 -87.6164 146° Southeast 281 323 7,900 1,980 Climbing Chicago Center
Wed 08:10:57 AM 42.0667 -87.5833 154° Southeast 291 335 9,300 2,086 Climbing Chicago TRACON
Wed 08:11:00 AM 41.9936 -87.3415 102° East  Level FlightAware
Wed 08:13:26 AM 41.9914 -87.3519 114° Southeast 251 289 14,400  Level Indianapolis Center
Wed 08:14:26 AM 41.9778 -87.2367 99° East 315 362 16,400 2,115 Climbing Chicago Center
Wed 08:15:28 AM 41.9578 -87.0856 100° East 337 388 18,700 1,258 Climbing Chicago Center
Wed 08:16:30 AM 41.9419 -86.9508 99° East 363 418 19,000 145 Climbing Chicago Center
Wed 08:17:32 AM 41.9211 -86.7961 100° East 411 473 19,000  Level Chicago Center
Wed 08:18:34 AM 41.9006 -86.6383 100° East 422 486 19,000  Level Chicago Center
Wed 08:19:36 AM 41.8797 -86.4842 100° East 422 486 19,000  Level Chicago Center
Wed 08:20:38 AM 41.8594 -86.3311 100° East 418 481 19,000  Level Chicago Center
Wed 08:21:40 AM 41.8392 -86.1786 100° East 417 480 19,000  Level Chicago Center
Wed 08:22:42 AM 41.8139 -85.9981 101° East 411 473 19,000  Level Chicago Center
Wed 08:23:44 AM 41.7936 -85.8464 100° East 415 478 19,000  Level Chicago Center
Wed 08:24:46 AM 41.7717 -85.6969 101° East 410 472 19,000  Level Chicago Center
Wed 08:25:48 AM 41.7106 -85.5672 122° Southeast 416 479 19,000  Level Chicago Center
Wed 08:26:50 AM 41.6128 -85.4911 150° Southeast 424 488 19,000  Level Chicago Center
Wed 08:27:52 AM 41.4764 -85.4611 171° South 419 482 19,000  Level Chicago Center
Wed 08:28:54 AM 41.3633 -85.4386 172° South 420 483 19,000  Level Chicago Center
Wed 08:29:56 AM 41.2475 -85.4161 172° South 422 486 19,000  Level Chicago Center
Wed 08:30:58 AM 41.1319 -85.3944 172° South 420 483 19,000  Level Chicago Center
Wed 08:31:59 AM 41.0144 -85.3747 173° South 421 484 19,000  Level Chicago Center
Wed 08:33:01 AM 40.8772 -85.3444 171° South 423 487 19,000  Level Chicago Center
Wed 08:34:03 AM 40.7603 -85.3228 172° South 424 488 19,000  Level Chicago Center
Wed 08:35:05 AM 40.6567 -85.3039 172° South 424 488 19,000 -629 Level Chicago Center
Wed 08:36:07 AM 40.5211 -85.2822 173° South 415 478 17,700 -1,694 Descending Chicago Center
Wed 08:37:09 AM 40.4114 -85.2611 172° South 405 466 15,500 -2,000 Descending Chicago Center
Wed 08:38:04 AM 40.3236 -85.2447 172° South 394 453 13,800 -1,966 Descending Indianapolis Center
Wed 08:39:05 AM 40.2172 -85.2289 174° South 386 444 11,700 -2,146 Descending Indianapolis Center
Wed 08:40:07 AM 40.1036 -85.2083 172° South 326 375 9,400 -1,951 Descending Indianapolis Center
Wed 08:41:08 AM 40.0228 -85.1964 174° South 280 322 7,700 -1,707 Descending Indianapolis Center
Wed 08:42:10 AM 39.9475 -85.1828 172° South 275 316 5,900 -1,785 Descending Indianapolis Center
Wed 08:43:09 AM 39.8717 -85.1714 173° South 258 297 4,100 -1,355 Descending Indianapolis Center
Wed 08:44:14 AM 39.7903 -85.1556 171° South 266 306 3,100 -923 Descending Indianapolis Center

Login

Don't have an account? Register now (free) for customized features, flight alerts, and more!